createdAt,value
2023-06-03T00:00:45.585Z,10.70
2023-06-03T00:03:14.273Z,10.60
2023-06-03T00:05:43.655Z,10.70
2023-06-03T00:08:11.975Z,10.60
2023-06-03T00:10:39.850Z,10.60
2023-06-03T00:13:07.669Z,10.50
2023-06-03T00:15:35.665Z,10.50
2023-06-03T00:18:04.138Z,10.50
2023-06-03T00:20:34.490Z,10.40
2023-06-03T00:23:04.864Z,10.40
2023-06-03T00:25:33.285Z,10.30
2023-06-03T00:28:01.141Z,10.30
2023-06-03T00:30:30.030Z,10.30
2023-06-03T00:32:57.905Z,10.30
2023-06-03T00:35:25.780Z,10.20
2023-06-03T00:37:54.188Z,10.20
2023-06-03T00:40:23.382Z,10.10
2023-06-03T00:42:51.187Z,10.00
2023-06-03T00:45:19.469Z,10.00
2023-06-03T00:47:47.662Z,9.90
2023-06-03T00:50:16.679Z,9.90
2023-06-03T00:52:45.591Z,9.80
2023-06-03T00:55:13.441Z,9.80
2023-06-03T00:57:42.735Z,9.70
2023-06-03T01:00:11.717Z,9.70
2023-06-03T01:02:45.074Z,9.60
2023-06-03T01:05:13.597Z,9.60
2023-06-03T01:07:51.780Z,9.60
2023-06-03T01:10:25.682Z,9.60
2023-06-03T01:13:02.492Z,9.60
2023-06-03T01:15:32.593Z,9.50
2023-06-03T01:18:03.866Z,9.50
2023-06-03T01:20:32.171Z,9.60
2023-06-03T01:23:14.465Z,9.60
2023-06-03T01:25:43.090Z,9.50
2023-06-03T01:28:11.154Z,9.40
2023-06-03T01:30:39.006Z,9.30
2023-06-03T01:33:07.352Z,9.20
2023-06-03T01:35:36.102Z,9.20
2023-06-03T01:38:04.212Z,9.20
2023-06-03T01:40:33.519Z,9.10
2023-06-03T01:43:01.439Z,9.10
2023-06-03T01:45:29.370Z,9.10
2023-06-03T01:47:57.423Z,9.00
2023-06-03T01:50:25.693Z,9.00
2023-06-03T01:52:53.824Z,9.00
2023-06-03T01:55:21.646Z,9.00
2023-06-03T01:57:50.862Z,9.10
2023-06-03T02:00:19.248Z,9.10
2023-06-03T02:02:47.449Z,9.00
2023-06-03T02:05:15.531Z,9.00
2023-06-03T02:07:43.348Z,8.90
2023-06-03T02:10:11.528Z,8.90
2023-06-03T02:12:39.338Z,8.90
2023-06-03T02:15:09.714Z,8.80
2023-06-03T02:17:37.612Z,8.80
2023-06-03T02:20:07.688Z,8.80
2023-06-03T02:22:35.542Z,8.80
2023-06-03T02:25:04.073Z,8.80
2023-06-03T02:27:31.980Z,8.80
2023-06-03T02:29:59.788Z,8.80
2023-06-03T02:32:28.948Z,8.80
2023-06-03T02:34:56.782Z,8.90
2023-06-03T02:37:24.563Z,8.90
2023-06-03T02:39:52.359Z,8.90
2023-06-03T02:42:21.926Z,8.90
2023-06-03T02:44:50.401Z,9.00
2023-06-03T02:47:18.207Z,9.00
2023-06-03T02:49:47.404Z,8.90
2023-06-03T02:52:15.285Z,8.90
2023-06-03T02:54:43.076Z,9.00
2023-06-03T02:57:10.913Z,9.00
2023-06-03T02:59:38.769Z,9.00
2023-06-03T03:02:07.288Z,8.90
2023-06-03T03:04:37.483Z,8.90
2023-06-03T03:07:08.244Z,8.80
2023-06-03T03:09:36.132Z,8.80
2023-06-03T03:12:04.050Z,8.70
2023-06-03T03:14:31.885Z,8.70
2023-06-03T03:16:59.710Z,8.60
2023-06-03T03:19:27.605Z,8.60
2023-06-03T03:21:55.444Z,8.60
2023-06-03T03:24:25.469Z,8.60
2023-06-03T03:26:53.571Z,8.50
2023-06-03T03:29:25.251Z,8.50
2023-06-03T03:31:57.735Z,8.50
2023-06-03T03:34:25.614Z,8.50
2023-06-03T03:36:53.646Z,8.50
2023-06-03T03:39:21.500Z,8.60
2023-06-03T03:41:51.040Z,8.60
2023-06-03T03:44:19.009Z,8.60
2023-06-03T03:46:50.623Z,8.70
2023-06-03T03:49:25.446Z,8.90
2023-06-03T03:51:53.896Z,9.20
2023-06-03T03:54:24.311Z,9.50
2023-06-03T03:56:56.894Z,9.90
2023-06-03T03:59:28.377Z,10.20
2023-06-03T04:01:56.812Z,10.40
2023-06-03T04:04:41.573Z,10.40
2023-06-03T04:07:12.046Z,10.60
2023-06-03T04:09:41.021Z,10.90
2023-06-03T04:12:22.948Z,11.30
2023-06-03T04:14:52.603Z,11.50
2023-06-03T04:17:22.518Z,11.70
2023-06-03T04:19:50.500Z,11.90
2023-06-03T04:22:22.685Z,12.30
2023-06-03T04:24:56.422Z,12.50
2023-06-03T04:27:25.995Z,12.00
2023-06-03T04:29:54.156Z,11.90
2023-06-03T04:32:22.155Z,12.40
2023-06-03T04:34:54.622Z,13.00
2023-06-03T04:37:23.099Z,12.70
2023-06-03T04:39:52.247Z,12.60
2023-06-03T04:42:21.055Z,12.60
2023-06-03T04:44:50.841Z,13.30
2023-06-03T04:47:19.044Z,13.30
2023-06-03T04:49:48.251Z,13.40
2023-06-03T04:52:16.578Z,13.70
2023-06-03T04:54:44.443Z,13.70
2023-06-03T04:57:12.278Z,13.60
2023-06-03T04:59:40.215Z,13.60
2023-06-03T05:02:14.464Z,13.40
2023-06-03T05:04:43.465Z,13.60
2023-06-03T05:07:11.737Z,13.80
2023-06-03T05:09:39.546Z,14.10
2023-06-03T05:12:08.705Z,14.00
2023-06-03T05:14:36.630Z,14.30
2023-06-03T05:17:04.922Z,15.10
2023-06-03T05:19:34.067Z,15.40
2023-06-03T05:22:04.242Z,15.60
2023-06-03T05:24:32.080Z,15.70
2023-06-03T05:26:59.898Z,16.10
2023-06-03T05:29:27.698Z,15.80
2023-06-03T05:31:55.548Z,15.90
2023-06-03T05:34:23.365Z,16.00
2023-06-03T05:36:52.514Z,16.40
2023-06-03T05:39:20.369Z,16.30
2023-06-03T05:41:48.178Z,15.90
2023-06-03T05:44:16.060Z,15.70
2023-06-03T05:46:43.911Z,15.60
2023-06-03T05:49:11.760Z,15.60
2023-06-03T05:51:39.561Z,15.80
2023-06-03T05:54:09.021Z,15.40
2023-06-03T05:56:36.837Z,16.10
2023-06-03T05:59:04.779Z,16.20
2023-06-03T06:01:33.776Z,16.60
2023-06-03T06:04:01.718Z,16.70
2023-06-03T06:06:29.784Z,16.70
2023-06-03T06:08:57.719Z,16.70
2023-06-03T06:11:28.046Z,16.70
2023-06-03T06:13:55.969Z,16.50
2023-06-03T06:16:23.898Z,16.50
2023-06-03T06:18:51.718Z,17.00
2023-06-03T06:21:19.672Z,16.90
2023-06-03T06:23:47.649Z,17.00
2023-06-03T06:26:16.356Z,17.00
2023-06-03T06:28:46.851Z,17.10
2023-06-03T06:31:16.411Z,17.10
2023-06-03T06:33:48.942Z,16.90
2023-06-03T06:36:41.329Z,16.90
2023-06-03T06:39:39.767Z,16.70
2023-06-03T06:42:12.244Z,16.80
2023-06-03T06:44:47.553Z,16.90
2023-06-03T06:47:19.990Z,17.50
2023-06-03T06:49:47.985Z,17.50
2023-06-03T06:52:16.530Z,17.20
2023-06-03T06:54:44.535Z,16.60
2023-06-03T06:57:12.568Z,16.50
2023-06-03T06:59:41.713Z,17.00
2023-06-03T07:02:09.592Z,17.20
2023-06-03T07:04:37.410Z,17.10
2023-06-03T07:07:05.843Z,17.30
2023-06-03T07:09:33.691Z,17.70
2023-06-03T07:12:01.843Z,17.80
2023-06-03T07:14:31.739Z,18.00
2023-06-03T07:17:01.041Z,17.90
2023-06-03T07:19:32.603Z,17.40
2023-06-03T07:22:00.836Z,17.30
2023-06-03T07:24:28.953Z,18.00
2023-06-03T07:26:56.788Z,18.70
2023-06-03T07:29:24.590Z,19.00
2023-06-03T07:31:52.468Z,19.00
2023-06-03T07:34:25.025Z,19.20
2023-06-03T07:36:55.787Z,20.10
2023-06-03T07:39:23.608Z,19.80
2023-06-03T07:41:53.078Z,19.10
2023-06-03T07:44:28.649Z,19.40
2023-06-03T07:46:58.619Z,19.80
2023-06-03T07:49:27.957Z,20.30
2023-06-03T07:51:55.904Z,19.80
2023-06-03T07:54:23.988Z,20.10
2023-06-03T07:56:51.992Z,20.20
2023-06-03T07:59:22.577Z,19.90
2023-06-03T08:01:52.283Z,20.00
2023-06-03T08:04:31.325Z,20.40
2023-06-03T08:07:01.169Z,20.70
2023-06-03T08:09:30.987Z,21.10
2023-06-03T08:11:59.532Z,21.00
2023-06-03T08:14:27.882Z,21.30
2023-06-03T08:16:57.376Z,21.40
2023-06-03T08:19:25.279Z,21.40
2023-06-03T08:21:54.710Z,20.70
2023-06-03T08:24:22.526Z,20.70
2023-06-03T08:26:50.397Z,20.70
2023-06-03T08:29:18.268Z,21.00
2023-06-03T08:31:46.169Z,21.30
2023-06-03T08:34:14.591Z,21.20
2023-06-03T08:36:42.467Z,21.30
2023-06-03T08:39:11.636Z,20.90
2023-06-03T08:41:40.198Z,21.20
2023-06-03T08:44:28.510Z,21.20
2023-06-03T08:47:07.719Z,21.50
2023-06-03T08:49:49.558Z,21.40
2023-06-03T08:52:19.756Z,20.90
2023-06-03T08:54:49.857Z,21.20
2023-06-03T08:57:20.607Z,21.40
2023-06-03T08:59:52.214Z,21.00
2023-06-03T09:02:20.320Z,21.20
2023-06-03T09:04:51.058Z,21.30
2023-06-03T09:07:20.191Z,21.20
2023-06-03T09:09:51.582Z,21.30
2023-06-03T09:12:19.771Z,21.20
2023-06-03T09:14:49.301Z,21.40
2023-06-03T09:17:17.266Z,21.70
2023-06-03T09:19:45.360Z,21.80
2023-06-03T09:22:13.595Z,21.90
2023-06-03T09:24:41.497Z,22.00
2023-06-03T09:27:10.718Z,21.80
2023-06-03T09:29:38.735Z,21.70
2023-06-03T09:32:08.063Z,21.50
2023-06-03T09:34:36.425Z,21.60
2023-06-03T09:37:09.249Z,21.90
2023-06-03T09:39:38.743Z,22.20
2023-06-03T09:42:07.541Z,22.50
2023-06-03T09:44:44.361Z,22.20
2023-06-03T09:47:13.091Z,22.10
2023-06-03T09:49:49.657Z,21.80
2023-06-03T09:52:33.248Z,21.80
2023-06-03T09:55:05.136Z,22.20
2023-06-03T09:57:33.338Z,22.10
2023-06-03T10:00:11.936Z,22.40
2023-06-03T10:02:41.220Z,22.10
2023-06-03T10:05:27.679Z,21.90
2023-06-03T10:07:55.533Z,22.10
2023-06-03T10:10:23.428Z,22.10
2023-06-03T10:12:52.507Z,22.50
2023-06-03T10:18:13.503Z,22.60
2023-06-03T10:20:42.729Z,22.50
2023-06-03T10:23:11.921Z,22.30
2023-06-03T10:25:43.852Z,22.20
2023-06-03T10:28:13.220Z,22.40
2023-06-03T10:30:41.875Z,22.20
2023-06-03T10:33:11.083Z,22.10
2023-06-03T10:35:41.095Z,22.30
2023-06-03T10:38:10.557Z,22.90
2023-06-03T10:40:38.712Z,23.10
2023-06-03T10:43:07.317Z,22.90
2023-06-03T10:45:35.224Z,22.80
2023-06-03T10:48:09.558Z,22.30
2023-06-03T10:50:53.266Z,22.30
2023-06-03T10:53:29.194Z,22.20
2023-06-03T10:56:07.781Z,21.90
2023-06-03T10:58:36.262Z,22.10
2023-06-03T11:01:06.131Z,22.60
2023-06-03T11:03:35.256Z,22.20
2023-06-03T11:06:43.844Z,22.60
2023-06-03T11:09:17.381Z,22.90
2023-06-03T11:12:04.364Z,22.80
2023-06-03T11:14:54.299Z,22.60
2023-06-03T11:17:23.347Z,22.60
2023-06-03T11:19:56.114Z,22.80
2023-06-03T11:22:42.840Z,22.90
2023-06-03T11:25:25.804Z,23.10
2023-06-03T11:27:53.810Z,22.80
2023-06-03T11:30:21.722Z,23.00
2023-06-03T11:33:10.432Z,23.00
2023-06-03T11:35:38.374Z,23.10
2023-06-03T11:38:07.534Z,23.00
2023-06-03T11:40:46.241Z,23.10
2023-06-03T11:43:14.872Z,23.10
2023-06-03T11:45:43.942Z,23.70
2023-06-03T11:48:12.775Z,23.00
2023-06-03T11:50:48.952Z,22.90
2023-06-03T11:53:37.619Z,23.10
2023-06-03T11:56:07.116Z,23.00
2023-06-03T11:58:36.146Z,23.10
2023-06-03T12:01:08.874Z,22.80
2023-06-03T12:03:37.915Z,22.70
2023-06-03T12:06:06.405Z,23.10
2023-06-03T12:08:46.845Z,23.10
2023-06-03T12:11:27.125Z,23.00
2023-06-03T12:13:55.032Z,23.10
2023-06-03T12:16:31.208Z,23.30
2023-06-03T12:18:59.353Z,23.20
2023-06-03T12:21:27.198Z,23.00
2023-06-03T12:23:57.778Z,23.20
2023-06-03T12:26:26.666Z,23.40
2023-06-03T12:29:05.901Z,23.90
2023-06-03T12:31:33.933Z,23.70
2023-06-03T12:34:03.007Z,23.40
2023-06-03T12:36:48.689Z,23.70
2023-06-03T12:39:20.889Z,24.20
2023-06-03T12:41:52.131Z,23.60
2023-06-03T12:44:20.788Z,24.10
2023-06-03T12:47:01.922Z,24.20
2023-06-03T12:49:30.783Z,24.10
2023-06-03T12:52:20.288Z,24.10
2023-06-03T12:54:52.370Z,24.30
2023-06-03T12:57:21.444Z,24.40
2023-06-03T13:00:17.869Z,24.40
2023-06-03T13:02:47.400Z,24.40
2023-06-03T13:05:16.546Z,23.90
2023-06-03T13:07:46.279Z,23.70
2023-06-03T13:10:17.662Z,23.80
2023-06-03T13:12:48.059Z,23.60
2023-06-03T13:15:16.156Z,23.80
2023-06-03T13:17:44.108Z,24.00
2023-06-03T13:20:12.291Z,23.80
2023-06-03T13:22:42.168Z,23.70
2023-06-03T13:25:10.832Z,23.70
2023-06-03T13:27:42.435Z,23.70
2023-06-03T13:30:11.234Z,23.50
2023-06-03T13:32:40.226Z,23.60
2023-06-03T13:35:08.864Z,23.90
2023-06-03T13:37:36.718Z,24.20
2023-06-03T13:40:05.596Z,24.00
2023-06-03T13:42:33.550Z,24.10
2023-06-03T13:45:07.303Z,24.20
2023-06-03T13:47:35.413Z,24.10
2023-06-03T13:50:03.691Z,24.20
2023-06-03T13:52:31.601Z,24.20
2023-06-03T13:54:59.518Z,24.40
2023-06-03T13:57:27.360Z,24.50
2023-06-03T13:59:55.189Z,24.10
2023-06-03T14:02:24.397Z,23.90
2023-06-03T14:04:52.223Z,23.80
2023-06-03T14:07:20.061Z,24.10
2023-06-03T14:09:48.248Z,24.20
2023-06-03T14:12:16.207Z,24.00
2023-06-03T14:14:45.878Z,23.80
2023-06-03T14:17:13.721Z,24.00
2023-06-03T14:19:42.972Z,24.10
2023-06-03T14:22:11.222Z,23.60
2023-06-03T14:24:39.033Z,23.70
2023-06-03T14:27:07.065Z,23.70
2023-06-03T14:29:35.062Z,24.00
2023-06-03T14:34:31.909Z,24.20
2023-06-03T14:37:01.161Z,24.30
2023-06-03T14:39:30.690Z,24.00
2023-06-03T14:41:59.326Z,24.00
2023-06-03T14:44:27.214Z,23.90
2023-06-03T14:46:55.136Z,23.90
2023-06-03T14:49:24.929Z,23.70
2023-06-03T14:51:52.968Z,23.60
2023-06-03T14:54:22.142Z,23.70
2023-06-03T14:56:49.948Z,23.30
2023-06-03T14:59:17.826Z,23.40
2023-06-03T15:01:45.733Z,23.40
2023-06-03T15:04:15.316Z,23.30
2023-06-03T15:06:43.454Z,23.60
2023-06-03T15:09:11.384Z,23.60
2023-06-03T15:11:40.710Z,23.80
2023-06-03T15:14:08.526Z,23.90
2023-06-03T15:16:37.036Z,23.80
2023-06-03T15:19:05.046Z,23.80
2023-06-03T15:21:33.108Z,23.60
2023-06-03T15:24:01.113Z,23.60
2023-06-03T15:26:28.966Z,23.70
2023-06-03T15:28:58.422Z,23.70
2023-06-03T15:31:26.815Z,23.70
2023-06-03T15:33:54.766Z,23.40
2023-06-03T15:36:22.762Z,23.40
2023-06-03T15:38:50.758Z,23.60
2023-06-03T15:41:18.618Z,23.60
2023-06-03T15:43:46.407Z,23.30
2023-06-03T15:46:15.577Z,23.10
2023-06-03T15:48:43.406Z,23.10
2023-06-03T15:51:11.445Z,23.10
2023-06-03T15:53:39.306Z,23.00
2023-06-03T15:56:08.125Z,23.00
2023-06-03T15:58:36.114Z,23.10
2023-06-03T16:01:04.050Z,23.20
2023-06-03T16:03:33.346Z,23.50
2023-06-03T16:06:01.361Z,23.40
2023-06-03T16:08:29.194Z,23.10
2023-06-03T16:10:57.064Z,22.90
2023-06-03T16:13:25.453Z,23.10
2023-06-03T16:15:53.276Z,23.20
2023-06-03T16:18:21.589Z,23.20
2023-06-03T16:20:51.003Z,23.20
2023-06-03T16:23:20.168Z,23.20
2023-06-03T16:25:48.035Z,23.30
2023-06-03T16:28:16.573Z,23.30
2023-06-03T16:30:44.396Z,23.30
2023-06-03T16:33:12.271Z,23.20
2023-06-03T16:35:40.328Z,23.10
2023-06-03T16:38:09.783Z,23.00
2023-06-03T16:40:37.578Z,23.00
2023-06-03T16:43:05.406Z,22.90
2023-06-03T16:45:34.531Z,22.70
2023-06-03T16:48:04.961Z,22.50
2023-06-03T16:50:32.863Z,22.30
2023-06-03T16:53:01.701Z,22.30
2023-06-03T16:55:31.004Z,22.60
2023-06-03T16:58:01.194Z,22.70
2023-06-03T17:00:29.219Z,22.90
2023-06-03T17:02:57.174Z,22.90
2023-06-03T17:05:25.105Z,22.80
2023-06-03T17:07:53.023Z,22.80
2023-06-03T17:10:20.960Z,22.70
2023-06-03T17:12:51.253Z,22.80
2023-06-03T17:15:20.705Z,23.00
2023-06-03T17:17:50.570Z,22.80
2023-06-03T17:20:18.442Z,22.70
2023-06-03T17:22:46.302Z,22.60
2023-06-03T17:25:14.101Z,22.70
2023-06-03T17:27:41.985Z,22.70
2023-06-03T17:30:12.003Z,22.80
2023-06-03T17:32:39.826Z,23.10
2023-06-03T17:35:08.310Z,22.80
2023-06-03T17:37:36.229Z,22.60
2023-06-03T17:40:04.316Z,22.60
2023-06-03T17:42:32.140Z,22.90
2023-06-03T17:45:00.126Z,22.60
2023-06-03T17:47:29.299Z,22.10
2023-06-03T17:49:57.119Z,21.90
2023-06-03T17:52:24.920Z,22.10
2023-06-03T17:54:52.738Z,22.20
2023-06-03T17:57:20.745Z,22.20
2023-06-03T17:59:48.547Z,22.10
2023-06-03T18:02:16.429Z,22.10
2023-06-03T18:04:45.983Z,22.10
2023-06-03T18:07:15.078Z,22.20
2023-06-03T18:09:44.157Z,22.30
2023-06-03T18:12:12.661Z,22.20
2023-06-03T18:14:40.468Z,22.20
2023-06-03T18:17:08.668Z,22.20
2023-06-03T18:19:36.527Z,22.40
2023-06-03T18:22:06.024Z,22.60
2023-06-03T18:24:33.819Z,22.40
2023-06-03T18:27:01.710Z,22.10
2023-06-03T18:29:29.653Z,21.80
2023-06-03T18:31:57.805Z,21.50
2023-06-03T18:34:25.696Z,21.40
2023-06-03T18:36:54.180Z,21.20
2023-06-03T18:39:23.930Z,21.00
2023-06-03T18:41:51.805Z,20.90
2023-06-03T18:44:20.422Z,20.80
2023-06-03T18:46:49.990Z,20.70
2023-06-03T18:49:17.835Z,20.70
2023-06-03T18:51:46.221Z,20.60
2023-06-03T18:54:14.126Z,20.40
2023-06-03T18:56:43.476Z,20.40
2023-06-03T18:59:17.888Z,20.30
2023-06-03T19:01:47.251Z,20.20
2023-06-03T19:04:15.846Z,20.20
2023-06-03T19:06:44.115Z,20.10
2023-06-03T19:09:13.721Z,20.00
2023-06-03T19:11:44.436Z,19.80
2023-06-03T19:14:13.093Z,19.80
2023-06-03T19:16:41.997Z,19.70
2023-06-03T19:19:10.608Z,19.70
2023-06-03T19:21:38.933Z,19.70
2023-06-03T19:24:07.522Z,19.60
2023-06-03T19:26:35.838Z,19.60
2023-06-03T19:29:05.328Z,19.60
2023-06-03T19:31:34.138Z,19.60
2023-06-03T19:34:02.342Z,19.60
2023-06-03T19:36:31.114Z,19.60
2023-06-03T19:38:59.320Z,19.60
2023-06-03T19:41:27.451Z,19.50
2023-06-03T19:43:55.759Z,19.50
2023-06-03T19:46:27.691Z,19.50
2023-06-03T19:48:55.805Z,19.50
2023-06-03T19:51:24.028Z,19.50
2023-06-03T19:53:51.885Z,19.40
2023-06-03T19:56:19.796Z,19.50
2023-06-03T19:58:47.614Z,19.40
2023-06-03T20:01:15.632Z,19.30
2023-06-03T20:03:44.928Z,19.20
2023-06-03T20:06:12.805Z,19.20
2023-06-03T20:08:40.674Z,19.20
2023-06-03T20:11:08.892Z,19.10
2023-06-03T20:13:36.999Z,19.10
2023-06-03T20:16:06.316Z,19.00
2023-06-03T20:18:34.680Z,19.00
2023-06-03T20:21:03.994Z,18.90
2023-06-03T20:23:31.967Z,18.90
2023-06-03T20:25:59.871Z,18.90
2023-06-03T20:28:27.733Z,18.80
2023-06-03T20:30:55.595Z,18.80
2023-06-03T20:33:23.737Z,18.70
2023-06-03T20:35:51.551Z,18.60
2023-06-03T20:38:20.727Z,18.60
2023-06-03T20:40:48.621Z,18.50
2023-06-03T20:43:16.587Z,18.50
2023-06-03T20:45:44.385Z,18.40
2023-06-03T20:48:13.128Z,18.40
2023-06-03T20:50:41.029Z,18.40
2023-06-03T20:53:08.817Z,18.30
2023-06-03T20:55:37.992Z,18.30
2023-06-03T20:58:06.142Z,18.30
2023-06-03T21:00:33.954Z,18.30
2023-06-03T21:03:03.113Z,18.30
2023-06-03T21:05:31.235Z,18.20
2023-06-03T21:07:59.083Z,18.20
2023-06-03T21:10:26.907Z,18.10
2023-06-03T21:12:56.115Z,18.10
2023-06-03T21:15:24.131Z,18.10
2023-06-03T21:17:52.014Z,18.00
2023-06-03T21:20:20.041Z,17.90
2023-06-03T21:22:47.871Z,17.90
2023-06-03T21:25:15.786Z,17.90
2023-06-03T21:27:44.000Z,17.80
2023-06-03T21:30:14.864Z,17.70
2023-06-03T21:32:42.814Z,17.60
2023-06-03T21:35:11.229Z,17.50
2023-06-03T21:37:39.056Z,17.40
2023-06-03T21:40:10.527Z,17.40
2023-06-03T21:42:38.375Z,17.40
2023-06-03T21:45:07.046Z,17.40
2023-06-03T21:47:36.242Z,17.30
2023-06-03T21:50:04.270Z,17.30
2023-06-03T21:52:32.124Z,17.30
2023-06-03T21:55:00.104Z,17.30
2023-06-03T21:57:27.981Z,17.30
2023-06-03T21:59:55.825Z,17.10
2023-06-03T22:02:23.684Z,17.00
2023-06-03T22:04:52.842Z,16.90
2023-06-03T22:07:20.934Z,16.70
2023-06-03T22:09:48.792Z,16.60
2023-06-03T22:12:17.289Z,16.50
2023-06-03T22:14:45.114Z,16.30
2023-06-03T22:17:13.088Z,16.20
2023-06-03T22:19:40.873Z,16.20
2023-06-03T22:22:10.200Z,16.10
2023-06-03T22:24:38.011Z,16.00
2023-06-03T22:27:07.240Z,16.10
2023-06-03T22:29:35.121Z,16.30
2023-06-03T22:32:02.922Z,16.30
2023-06-03T22:34:30.743Z,16.20
2023-06-03T22:36:58.689Z,16.00
2023-06-03T22:39:27.854Z,16.10
2023-06-03T22:41:55.782Z,16.00
2023-06-03T22:44:23.622Z,16.00
2023-06-03T22:46:51.516Z,15.90
2023-06-03T22:49:19.389Z,16.00
2023-06-03T22:51:47.238Z,16.00
2023-06-03T22:54:15.069Z,16.00
2023-06-03T22:56:44.269Z,16.00
2023-06-03T22:59:12.105Z,16.00
2023-06-03T23:01:39.945Z,15.90
2023-06-03T23:04:08.722Z,15.80
2023-06-03T23:06:36.999Z,15.60
2023-06-03T23:09:05.027Z,15.40
2023-06-03T23:11:34.152Z,15.30
2023-06-03T23:14:03.890Z,15.20
2023-06-03T23:16:31.777Z,15.20
2023-06-03T23:18:59.649Z,15.10
2023-06-03T23:21:31.214Z,15.10
2023-06-03T23:23:59.194Z,15.10
2023-06-03T23:26:27.232Z,15.20
2023-06-03T23:28:54.993Z,15.30
2023-06-03T23:31:24.284Z,15.30
2023-06-03T23:33:52.097Z,15.00
2023-06-03T23:36:21.650Z,14.90
2023-06-03T23:38:50.922Z,14.70
2023-06-03T23:41:18.877Z,14.60
2023-06-03T23:43:46.731Z,14.50
2023-06-03T23:46:14.691Z,14.60
2023-06-03T23:48:43.871Z,14.40
2023-06-03T23:51:11.661Z,14.30
2023-06-03T23:53:39.430Z,14.10
2023-06-03T23:56:08.013Z,13.90
2023-06-03T23:58:35.849Z,13.80
